Hornblower Hybrid — WDE6422 — position and weather

sailwx.info

Track history (hours):
 
Tides and Currents Weather Stations Pressure Air Temp Water Temp Dewpoint Dewpoint Depression Visibility Wind Speed Wind Dir Waves Ship Positions

Hornblower Hybrid

Owner: Hornblower Hybrid LLC, San Francisco, CA. More information available from US FCC via Universal Licensing System and Coast Guard Vessel Documentation Center.

Last reported at 2017-Oct-17 20:30 UTC. Time now 2017-Oct-17 20:46 UTC.
Position N 37°48' W 122°24'.

Length 20 m; draft 2 m.

Type: Ship. MMSI: 367380120.

Date/timePositionNaut miles runAvg speedWind from/ knotsBaromVisibWave heightAir tempDewpointWater temp
2017-Oct-17 20:30N 37°48' W 122°24'0 0.1
2017-Oct-17 19:59N 37°48' W 122°24'0 0.0
2017-Oct-17 19:29N 37°48' W 122°24'0 0.0
2017-Oct-17 18:58N 37°48' W 122°24'0 0.1
2017-Oct-17 18:31N 37°48' W 122°24'0 0.1
2017-Oct-17 18:00N 37°48' W 122°24'0 0.1
2017-Oct-17 17:30N 37°48' W 122°24'0 0.0
2017-Oct-17 17:01N 37°48' W 122°24'0 0.0
2017-Oct-15 22:39N 37°48' W 122°24'0 0.4
2017-Oct-15 22:30N 37°48' W 122°24'2 3.6
2017-Oct-15 22:00N 37°50' W 122°24'2 4.4
2017-Oct-15 21:30N 37°52' W 122°26'1 2.2
2017-Oct-15 21:00N 37°51' W 122°27'2 4.6
2017-Oct-15 20:30N 37°49' W 122°25'3 5.5
2017-Oct-15 20:00N 37°52' W 122°26'2 3.3
2017-Oct-15 19:30N 37°51' W 122°27'1 2.7
2017-Oct-15 19:00N 37°50' W 122°25'2 5.0
2017-Oct-15 18:30N 37°52' W 122°26'0 0.0
2017-Oct-15 18:00N 37°52' W 122°26'0 0.0
2017-Oct-15 17:27N 37°52' W 122°26'2 4.7
2017-Oct-15 17:00N 37°50' W 122°26'2 3.5
2017-Oct-15 16:26N 37°48' W 122°24'0 0.0
2017-Oct-15 15:57N 37°48' W 122°24'0 0.0
2017-Oct-15 15:30N 37°48' W 122°24'0 0.0
2017-Oct-15 05:24N 37°48' W 122°24'0 0.1
2017-Oct-15 05:00N 37°48' W 122°24'0 0.0
2017-Oct-15 04:30N 37°48' W 122°24'1 1.5
2017-Oct-15 04:00N 37°48' W 122°23'2 4.5
2017-Oct-15 03:31N 37°50' W 122°25'4 7.1
2017-Oct-15 03:01N 37°52' W 122°29'2 4.1
2017-Oct-15 02:30N 37°50' W 122°27'3 5.1
2017-Oct-15 02:00N 37°49' W 122°24'0 0.4
2017-Oct-15 01:31N 37°49' W 122°25'1 1.0
2017-Oct-15 01:01N 37°48' W 122°24'0 0.0
2017-Oct-15 00:30N 37°48' W 122°24'0 0.0
2017-Oct-15 00:00N 37°48' W 122°24'0 0.0
2017-Oct-14 23:30N 37°48' W 122°24'0 0.0
2017-Oct-14 23:00N 37°48' W 122°24'0 0.0
2017-Oct-14 22:31N 37°48' W 122°24'2 3.6
2017-Oct-14 22:01N 37°50' W 122°25'2 4.4
2017-Oct-14 21:30N 37°52' W 122°26'1 2.4
2017-Oct-14 21:00N 37°51' W 122°27'2 4.2
2017-Oct-14 20:31N 37°50' W 122°25'2 4.7
2017-Oct-14 19:59N 37°52' W 122°26'1 1.9
2017-Oct-14 19:31N 37°51' W 122°27'2 4.0
2017-Oct-14 19:00N 37°50' W 122°25'3 5.0
2017-Oct-14 18:30N 37°52' W 122°26'0 0.0
2017-Oct-14 18:01N 37°52' W 122°26'0 0.0
2017-Oct-14 17:30N 37°52' W 122°26'2 5.0
2017-Oct-14 17:00N 37°50' W 122°25'2 3.1
2017-Oct-14 16:30N 37°48' W 122°24'0 0.0
2017-Oct-14 15:58N 37°48' W 122°24'  
2017-Oct-09 22:30N 37°48' W 122°24'2 3.6
2017-Oct-09 22:01N 37°50' W 122°24'2 2.8
2017-Oct-09 21:11N 37°52' W 122°26'1 5.6
2017-Oct-09 21:00N 37°51' W 122°27'2 4.5
2017-Oct-09 20:30N 37°50' W 122°25'3 3.4
2017-Oct-09 19:44N 37°52' W 122°26'1 5.3
2017-Oct-09 19:30N 37°51' W 122°27'2 3.7
2017-Oct-09 19:00N 37°50' W 122°25'3 2.6
2017-Oct-09 17:59N 37°52' W 122°26'0 0.4
2017-Oct-09 17:30N 37°52' W 122°26'3 6.7
2017-Oct-09 17:00N 37°49' W 122°24'1 1.7
2017-Oct-09 16:30N 37°48' W 122°24'0 0.0
2017-Oct-09 16:00N 37°48' W 122°24'0 0.1
2017-Oct-09 15:30N 37°48' W 122°24'0 0.0
2017-Oct-08 22:32N 37°48' W 122°24'0 0.0
2017-Oct-08 22:30N 37°48' W 122°24'2 4.2
2017-Oct-08 22:00N 37°51' W 122°25'2 3.9
2017-Oct-08 21:29N 37°52' W 122°26'1 1.0
2017-Oct-08 21:00N 37°52' W 122°27'3 5.1
2017-Oct-08 20:30N 37°50' W 122°25'3 4.9
2017-Oct-08 19:59N 37°52' W 122°26'1 1.7
2017-Oct-08 19:30N 37°52' W 122°27'2 4.8
2017-Oct-08 19:00N 37°50' W 122°25'3 5.2
2017-Oct-08 18:30N 37°52' W 122°26'0 0.0
2017-Oct-08 18:00N 37°52' W 122°26'0 0.0
2017-Oct-08 17:30N 37°52' W 122°26'2 4.1
2017-Oct-08 17:00N 37°50' W 122°25'2 3.9
2017-Oct-08 16:30N 37°48' W 122°24'0 0.0
2017-Oct-08 16:00N 37°48' W 122°24'0 0.0
2017-Oct-07 22:37N 37°48' W 122°24'0 0.3
2017-Oct-07 22:28N 37°48' W 122°24'2 5.1
2017-Oct-07 22:00N 37°51' W 122°24'2 3.6
2017-Oct-07 21:30N 37°52' W 122°26'1 2.0
2017-Oct-07 21:00N 37°51' W 122°27'2 3.6
2017-Oct-07 20:30N 37°50' W 122°25'  
Track history (hours):
 
Tides and Currents Weather Stations Pressure Air Temp Water Temp Dewpoint Dewpoint Depression Visibility Wind Speed Wind Dir Waves Ship Positions

Hornblower Hybrid

Owner: Hornblower Hybrid LLC, San Francisco, CA. More information available from US FCC via Universal Licensing System and Coast Guard Vessel Documentation Center.

Last reported at 2017-Oct-17 20:30 UTC. Time now 2017-Oct-17 20:46 UTC.
Position N 37°48' W 122°24'.

Length 20 m; draft 2 m.

Type: Ship. MMSI: 367380120.

Date/timePositionNaut miles runAvg speedWind from/ knotsBaromVisibWave heightAir tempDewpointWater temp
2017-Oct-17 20:30N 37°48' W 122°24'0 0.1
2017-Oct-17 19:59N 37°48' W 122°24'0 0.0
2017-Oct-17 19:29N 37°48' W 122°24'0 0.0
2017-Oct-17 18:58N 37°48' W 122°24'0 0.1
2017-Oct-17 18:31N 37°48' W 122°24'0 0.1
2017-Oct-17 18:00N 37°48' W 122°24'0 0.1
2017-Oct-17 17:30N 37°48' W 122°24'0 0.0
2017-Oct-17 17:01N 37°48' W 122°24'0 0.0
2017-Oct-15 22:39N 37°48' W 122°24'0 0.4
2017-Oct-15 22:30N 37°48' W 122°24'2 3.6
2017-Oct-15 22:00N 37°50' W 122°24'2 4.4
2017-Oct-15 21:30N 37°52' W 122°26'1 2.2
2017-Oct-15 21:00N 37°51' W 122°27'2 4.6
2017-Oct-15 20:30N 37°49' W 122°25'3 5.5
2017-Oct-15 20:00N 37°52' W 122°26'2 3.3
2017-Oct-15 19:30N 37°51' W 122°27'1 2.7
2017-Oct-15 19:00N 37°50' W 122°25'2 5.0
2017-Oct-15 18:30N 37°52' W 122°26'0 0.0
2017-Oct-15 18:00N 37°52' W 122°26'0 0.0
2017-Oct-15 17:27N 37°52' W 122°26'2 4.7
2017-Oct-15 17:00N 37°50' W 122°26'2 3.5
2017-Oct-15 16:26N 37°48' W 122°24'0 0.0
2017-Oct-15 15:57N 37°48' W 122°24'0 0.0
2017-Oct-15 15:30N 37°48' W 122°24'0 0.0
2017-Oct-15 05:24N 37°48' W 122°24'0 0.1
2017-Oct-15 05:00N 37°48' W 122°24'0 0.0
2017-Oct-15 04:30N 37°48' W 122°24'1 1.5
2017-Oct-15 04:00N 37°48' W 122°23'2 4.5
2017-Oct-15 03:31N 37°50' W 122°25'4 7.1
2017-Oct-15 03:01N 37°52' W 122°29'2 4.1
2017-Oct-15 02:30N 37°50' W 122°27'3 5.1
2017-Oct-15 02:00N 37°49' W 122°24'0 0.4
2017-Oct-15 01:31N 37°49' W 122°25'1 1.0
2017-Oct-15 01:01N 37°48' W 122°24'0 0.0
2017-Oct-15 00:30N 37°48' W 122°24'0 0.0
2017-Oct-15 00:00N 37°48' W 122°24'0 0.0
2017-Oct-14 23:30N 37°48' W 122°24'0 0.0
2017-Oct-14 23:00N 37°48' W 122°24'0 0.0
2017-Oct-14 22:31N 37°48' W 122°24'2 3.6
2017-Oct-14 22:01N 37°50' W 122°25'2 4.4
2017-Oct-14 21:30N 37°52' W 122°26'1 2.4
2017-Oct-14 21:00N 37°51' W 122°27'2 4.2
2017-Oct-14 20:31N 37°50' W 122°25'2 4.7
2017-Oct-14 19:59N 37°52' W 122°26'1 1.9
2017-Oct-14 19:31N 37°51' W 122°27'2 4.0
2017-Oct-14 19:00N 37°50' W 122°25'3 5.0
2017-Oct-14 18:30N 37°52' W 122°26'0 0.0
2017-Oct-14 18:01N 37°52' W 122°26'0 0.0
2017-Oct-14 17:30N 37°52' W 122°26'2 5.0
2017-Oct-14 17:00N 37°50' W 122°25'2 3.1
2017-Oct-14 16:30N 37°48' W 122°24'0 0.0
2017-Oct-14 15:58N 37°48' W 122°24'  
2017-Oct-09 22:30N 37°48' W 122°24'2 3.6
2017-Oct-09 22:01N 37°50' W 122°24'2 2.8
2017-Oct-09 21:11N 37°52' W 122°26'1 5.6
2017-Oct-09 21:00N 37°51' W 122°27'2 4.5
2017-Oct-09 20:30N 37°50' W 122°25'3 3.4
2017-Oct-09 19:44N 37°52' W 122°26'1 5.3
2017-Oct-09 19:30N 37°51' W 122°27'2 3.7
2017-Oct-09 19:00N 37°50' W 122°25'3 2.6
2017-Oct-09 17:59N 37°52' W 122°26'0 0.4
2017-Oct-09 17:30N 37°52' W 122°26'3 6.7
2017-Oct-09 17:00N 37°49' W 122°24'1 1.7
2017-Oct-09 16:30N 37°48' W 122°24'0 0.0
2017-Oct-09 16:00N 37°48' W 122°24'0 0.1
2017-Oct-09 15:30N 37°48' W 122°24'0 0.0
2017-Oct-08 22:32N 37°48' W 122°24'0 0.0
2017-Oct-08 22:30N 37°48' W 122°24'2 4.2
2017-Oct-08 22:00N 37°51' W 122°25'2 3.9
2017-Oct-08 21:29N 37°52' W 122°26'1 1.0
2017-Oct-08 21:00N 37°52' W 122°27'3 5.1
2017-Oct-08 20:30N 37°50' W 122°25'3 4.9
2017-Oct-08 19:59N 37°52' W 122°26'1 1.7
2017-Oct-08 19:30N 37°52' W 122°27'2 4.8
2017-Oct-08 19:00N 37°50' W 122°25'3 5.2
2017-Oct-08 18:30N 37°52' W 122°26'0 0.0
2017-Oct-08 18:00N 37°52' W 122°26'0 0.0
2017-Oct-08 17:30N 37°52' W 122°26'2 4.1
2017-Oct-08 17:00N 37°50' W 122°25'2 3.9
2017-Oct-08 16:30N 37°48' W 122°24'0 0.0
2017-Oct-08 16:00N 37°48' W 122°24'0 0.0
2017-Oct-07 22:37N 37°48' W 122°24'0 0.3
2017-Oct-07 22:28N 37°48' W 122°24'2 5.1
2017-Oct-07 22:00N 37°51' W 122°24'2 3.6
2017-Oct-07 21:30N 37°52' W 122°26'1 2.0
2017-Oct-07 21:00N 37°51' W 122°27'2 3.6
2017-Oct-07 20:30N 37°50' W 122°25'  

Dump ship's entire track history